Terminal Aerodrome Forecast
Issued by NWS

Home | Current Version | Previous Version | Text Only | Print | Product List | Glossary On
Versions: 1 2 3 4 5 6 7 8 9 10 11 12 13 14 15 16 17 18 19 20 21 22
000
FTUS41 KPBZ 242300
TAFMGW
TAF
KMGW 242336Z 2500/2524 24005KT 5SM -SHSN BR OVC008
      TEMPO 2500/2503 OVC012
     FM251600 21004KT 2SM -SN OVC006
     FM252100 VRB03KT 3/4SM -SN OVC004=

USA.gov is the U.S. government's official web portal to all federal, state and local government web resources and services.